sensor_id;sensor_type;location;lat;lon;timestamp;P1;durP1;ratioP1;P2;durP2;ratioP2
64712;SDS011;51140;45.340;5.980;2024-03-23T00:54:16;5.38;;;1.90;;
64712;SDS011;51140;45.340;5.980;2024-03-23T00:56:41;5.20;;;1.92;;
64712;SDS011;51140;45.340;5.980;2024-03-23T00:59:06;5.50;;;1.77;;
64712;SDS011;51140;45.340;5.980;2024-03-23T01:01:32;6.22;;;2.10;;
64712;SDS011;51140;45.340;5.980;2024-03-23T01:03:57;6.45;;;2.22;;
64712;SDS011;51140;45.340;5.980;2024-03-23T01:06:22;4.97;;;2.05;;
64712;SDS011;51140;45.340;5.980;2024-03-23T01:08:48;8.23;;;1.75;;
64712;SDS011;51140;45.340;5.980;2024-03-23T01:11:13;5.32;;;1.98;;
64712;SDS011;51140;45.340;5.980;2024-03-23T01:13:38;9.13;;;2.30;;
64712;SDS011;51140;45.340;5.980;2024-03-23T01:16:04;5.00;;;1.90;;
64712;SDS011;51140;45.340;5.980;2024-03-23T01:18:29;5.35;;;2.22;;
64712;SDS011;51140;45.340;5.980;2024-03-23T01:20:55;7.80;;;2.20;;
64712;SDS011;51140;45.340;5.980;2024-03-23T01:23:20;5.40;;;2.20;;
64712;SDS011;51140;45.340;5.980;2024-03-23T01:25:52;5.32;;;2.10;;
64712;SDS011;51140;45.340;5.980;2024-03-23T01:28:18;6.28;;;2.05;;
64712;SDS011;51140;45.340;5.980;2024-03-23T01:30:44;5.50;;;2.00;;
64712;SDS011;51140;45.340;5.980;2024-03-23T01:33:10;8.95;;;2.20;;
64712;SDS011;51140;45.340;5.980;2024-03-23T01:35:35;4.28;;;2.03;;
64712;SDS011;51140;45.340;5.980;2024-03-23T01:38:00;7.22;;;2.08;;
64712;SDS011;51140;45.340;5.980;2024-03-23T01:40:26;6.85;;;2.00;;
64712;SDS011;51140;45.340;5.980;2024-03-23T01:42:57;5.65;;;2.28;;
64712;SDS011;51140;45.340;5.980;2024-03-23T01:45:30;5.60;;;1.85;;
64712;SDS011;51140;45.340;5.980;2024-03-23T01:47:56;11.57;;;2.42;;
64712;SDS011;51140;45.340;5.980;2024-03-23T01:50:22;8.70;;;2.28;;
64712;SDS011;51140;45.340;5.980;2024-03-23T01:52:48;6.85;;;2.08;;
64712;SDS011;51140;45.340;5.980;2024-03-23T01:55:15;6.28;;;2.45;;
64712;SDS011;51140;45.340;5.980;2024-03-23T01:57:41;7.03;;;2.25;;
64712;SDS011;51140;45.340;5.980;2024-03-23T02:00:06;7.28;;;3.10;;
64712;SDS011;51140;45.340;5.980;2024-03-23T02:02:33;6.85;;;3.22;;
64712;SDS011;51140;45.340;5.980;2024-03-23T02:04:58;12.40;;;3.40;;
64712;SDS011;51140;45.340;5.980;2024-03-23T02:07:24;5.25;;;2.60;;
64712;SDS011;51140;45.340;5.980;2024-03-23T02:09:50;4.75;;;2.10;;
64712;SDS011;51140;45.340;5.980;2024-03-23T02:12:16;9.00;;;2.30;;
64712;SDS011;51140;45.340;5.980;2024-03-23T02:14:42;7.13;;;2.20;;
64712;SDS011;51140;45.340;5.980;2024-03-23T02:17:08;4.55;;;2.05;;
64712;SDS011;51140;45.340;5.980;2024-03-23T02:19:34;7.10;;;2.25;;
64712;SDS011;51140;45.340;5.980;2024-03-23T02:21:59;5.93;;;1.98;;
64712;SDS011;51140;45.340;5.980;2024-03-23T02:24:24;5.65;;;2.13;;
64712;SDS011;51140;45.340;5.980;2024-03-23T02:26:50;6.80;;;1.85;;
64712;SDS011;51140;45.340;5.980;2024-03-23T02:29:15;8.15;;;2.40;;
64712;SDS011;51140;45.340;5.980;2024-03-23T02:31:41;6.97;;;2.20;;
64712;SDS011;51140;45.340;5.980;2024-03-23T02:34:06;8.93;;;2.20;;
64712;SDS011;51140;45.340;5.980;2024-03-23T02:36:32;6.82;;;2.70;;
64712;SDS011;51140;45.340;5.980;2024-03-23T02:38:57;6.72;;;2.50;;
64712;SDS011;51140;45.340;5.980;2024-03-23T02:41:22;7.35;;;1.90;;
64712;SDS011;51140;45.340;5.980;2024-03-23T02:43:51;7.30;;;2.13;;
64712;SDS011;51140;45.340;5.980;2024-03-23T02:46:17;5.32;;;2.20;;
64712;SDS011;51140;45.340;5.980;2024-03-23T02:48:43;5.38;;;1.98;;
64712;SDS011;51140;45.340;5.980;2024-03-23T02:51:08;5.88;;;2.30;;
64712;SDS011;51140;45.340;5.980;2024-03-23T02:53:34;6.45;;;2.30;;
64712;SDS011;51140;45.340;5.980;2024-03-23T02:55:59;7.82;;;2.60;;
64712;SDS011;51140;45.340;5.980;2024-03-23T02:58:24;8.55;;;2.78;;
64712;SDS011;51140;45.340;5.980;2024-03-23T03:00:50;10.07;;;3.60;;
64712;SDS011;51140;45.340;5.980;2024-03-23T03:03:15;7.50;;;2.63;;
64712;SDS011;51140;45.340;5.980;2024-03-23T03:05:40;7.38;;;2.38;;
64712;SDS011;51140;45.340;5.980;2024-03-23T03:08:06;6.40;;;2.47;;
64712;SDS011;51140;45.340;5.980;2024-03-23T03:10:31;6.75;;;2.03;;
64712;SDS011;51140;45.340;5.980;2024-03-23T03:12:59;5.60;;;2.25;;
64712;SDS011;51140;45.340;5.980;2024-03-23T03:15:25;5.30;;;2.15;;
64712;SDS011;51140;45.340;5.980;2024-03-23T03:17:50;6.40;;;2.40;;
64712;SDS011;51140;45.340;5.980;2024-03-23T03:20:16;6.05;;;2.20;;
64712;SDS011;51140;45.340;5.980;2024-03-23T03:22:42;7.80;;;2.67;;
64712;SDS011;51140;45.340;5.980;2024-03-23T03:25:08;8.15;;;2.97;;
64712;SDS011;51140;45.340;5.980;2024-03-23T03:27:33;7.25;;;2.60;;
64712;SDS011;51140;45.340;5.980;2024-03-23T03:29:59;5.47;;;2.35;;
64712;SDS011;51140;45.340;5.980;2024-03-23T03:32:27;5.55;;;2.17;;
64712;SDS011;51140;45.340;5.980;2024-03-23T03:34:54;7.35;;;2.90;;
64712;SDS011;51140;45.340;5.980;2024-03-23T03:37:19;6.95;;;3.05;;
64712;SDS011;51140;45.340;5.980;2024-03-23T03:39:44;7.68;;;3.20;;
64712;SDS011;51140;45.340;5.980;2024-03-23T03:42:10;8.10;;;3.20;;
64712;SDS011;51140;45.340;5.980;2024-03-23T03:44:35;6.32;;;2.60;;
64712;SDS011;51140;45.340;5.980;2024-03-23T03:47:01;6.97;;;2.78;;
64712;SDS011;51140;45.340;5.980;2024-03-23T03:49:27;6.50;;;2.83;;
64712;SDS011;51140;45.340;5.980;2024-03-23T03:51:52;6.80;;;3.17;;
64712;SDS011;51140;45.340;5.980;2024-03-23T03:54:18;7.38;;;2.70;;
64712;SDS011;51140;45.340;5.980;2024-03-23T03:56:43;6.55;;;2.58;;
64712;SDS011;51140;45.340;5.980;2024-03-23T03:59:08;9.18;;;3.20;;
64712;SDS011;51140;45.340;5.980;2024-03-23T04:01:34;6.18;;;2.72;;
64712;SDS011;51140;45.340;5.980;2024-03-23T04:04:00;6.57;;;3.03;;
64712;SDS011;51140;45.340;5.980;2024-03-23T04:06:26;8.07;;;3.25;;
64712;SDS011;51140;45.340;5.980;2024-03-23T04:08:51;7.88;;;3.70;;
64712;SDS011;51140;45.340;5.980;2024-03-23T04:11:17;9.25;;;3.92;;
64712;SDS011;51140;45.340;5.980;2024-03-23T04:13:42;10.00;;;4.45;;
64712;SDS011;51140;45.340;5.980;2024-03-23T04:16:08;7.28;;;3.75;;
64712;SDS011;51140;45.340;5.980;2024-03-23T04:18:36;8.27;;;3.08;;
64712;SDS011;51140;45.340;5.980;2024-03-23T04:21:01;7.53;;;3.40;;
64712;SDS011;51140;45.340;5.980;2024-03-23T04:23:27;6.55;;;2.60;;
64712;SDS011;51140;45.340;5.980;2024-03-23T04:25:53;7.90;;;3.50;;
64712;SDS011;51140;45.340;5.980;2024-03-23T04:28:18;7.03;;;3.70;;
64712;SDS011;51140;45.340;5.980;2024-03-23T04:30:44;9.40;;;4.07;;
64712;SDS011;51140;45.340;5.980;2024-03-23T04:33:09;7.82;;;4.00;;
64712;SDS011;51140;45.340;5.980;2024-03-23T04:35:35;9.85;;;4.40;;
64712;SDS011;51140;45.340;5.980;2024-03-23T04:38:00;11.40;;;4.45;;
64712;SDS011;51140;45.340;5.980;2024-03-23T04:40:26;11.75;;;4.60;;
64712;SDS011;51140;45.340;5.980;2024-03-23T04:42:51;8.65;;;4.50;;
64712;SDS011;51140;45.340;5.980;2024-03-23T04:45:17;12.40;;;4.57;;
64712;SDS011;51140;45.340;5.980;2024-03-23T04:47:42;10.30;;;4.15;;
64712;SDS011;51140;45.340;5.980;2024-03-23T04:50:08;9.63;;;4.53;;
64712;SDS011;51140;45.340;5.980;2024-03-23T04:52:35;8.43;;;4.28;;
64712;SDS011;51140;45.340;5.980;2024-03-23T04:55:00;11.63;;;4.68;;
64712;SDS011;51140;45.340;5.980;2024-03-23T04:57:26;8.43;;;4.50;;
64712;SDS011;51140;45.340;5.980;2024-03-23T04:59:51;8.32;;;4.90;;
64712;SDS011;51140;45.340;5.980;2024-03-23T05:02:16;9.65;;;5.43;;
64712;SDS011;51140;45.340;5.980;2024-03-23T05:04:42;10.52;;;5.03;;
64712;SDS011;51140;45.340;5.980;2024-03-23T05:07:07;11.65;;;4.78;;
64712;SDS011;51140;45.340;5.980;2024-03-23T05:09:33;10.63;;;5.30;;
64712;SDS011;51140;45.340;5.980;2024-03-23T05:11:59;10.65;;;4.85;;
64712;SDS011;51140;45.340;5.980;2024-03-23T05:14:25;8.95;;;4.57;;
64712;SDS011;51140;45.340;5.980;2024-03-23T05:16:51;9.70;;;4.60;;
64712;SDS011;51140;45.340;5.980;2024-03-23T05:19:16;9.25;;;4.43;;
64712;SDS011;51140;45.340;5.980;2024-03-23T05:21:41;9.07;;;4.45;;
64712;SDS011;51140;45.340;5.980;2024-03-23T05:24:07;10.80;;;5.13;;
64712;SDS011;51140;45.340;5.980;2024-03-23T05:26:32;8.35;;;5.43;;
64712;SDS011;51140;45.340;5.980;2024-03-23T05:28:59;9.18;;;4.88;;
64712;SDS011;51140;45.340;5.980;2024-03-23T05:31:24;10.32;;;5.47;;
64712;SDS011;51140;45.340;5.980;2024-03-23T05:33:51;7.90;;;4.88;;
64712;SDS011;51140;45.340;5.980;2024-03-23T05:36:17;9.80;;;5.20;;
64712;SDS011;51140;45.340;5.980;2024-03-23T05:38:42;10.23;;;5.03;;
64712;SDS011;51140;45.340;5.980;2024-03-23T05:41:08;10.15;;;4.75;;
64712;SDS011;51140;45.340;5.980;2024-03-23T05:43:33;8.30;;;4.60;;
64712;SDS011;51140;45.340;5.980;2024-03-23T05:45:59;10.23;;;4.30;;
64712;SDS011;51140;45.340;5.980;2024-03-23T05:48:28;9.48;;;4.30;;
64712;SDS011;51140;45.340;5.980;2024-03-23T05:50:55;8.88;;;4.57;;
64712;SDS011;51140;45.340;5.980;2024-03-23T05:53:22;9.02;;;4.43;;
64712;SDS011;51140;45.340;5.980;2024-03-23T05:55:49;7.93;;;3.97;;
64712;SDS011;51140;45.340;5.980;2024-03-23T05:58:15;9.90;;;4.35;;
64712;SDS011;51140;45.340;5.980;2024-03-23T06:00:41;8.75;;;4.47;;
64712;SDS011;51140;45.340;5.980;2024-03-23T06:03:10;9.18;;;4.70;;
64712;SDS011;51140;45.340;5.980;2024-03-23T06:05:36;12.30;;;5.80;;
64712;SDS011;51140;45.340;5.980;2024-03-23T06:08:02;8.07;;;4.70;;
64712;SDS011;51140;45.340;5.980;2024-03-23T06:10:28;10.55;;;4.18;;
64712;SDS011;51140;45.340;5.980;2024-03-23T06:12:53;7.43;;;4.03;;
64712;SDS011;51140;45.340;5.980;2024-03-23T06:15:19;9.15;;;3.78;;
64712;SDS011;51140;45.340;5.980;2024-03-23T06:17:45;8.18;;;4.00;;
64712;SDS011;51140;45.340;5.980;2024-03-23T06:20:10;7.50;;;3.17;;
64712;SDS011;51140;45.340;5.980;2024-03-23T06:22:36;6.47;;;3.58;;
64712;SDS011;51140;45.340;5.980;2024-03-23T06:25:01;8.00;;;3.20;;
64712;SDS011;51140;45.340;5.980;2024-03-23T06:27:27;7.85;;;3.30;;
64712;SDS011;51140;45.340;5.980;2024-03-23T06:29:53;9.00;;;3.38;;
64712;SDS011;51140;45.340;5.980;2024-03-23T06:32:18;7.18;;;3.40;;
64712;SDS011;51140;45.340;5.980;2024-03-23T06:34:44;7.95;;;3.58;;
64712;SDS011;51140;45.340;5.980;2024-03-23T06:37:09;13.32;;;6.22;;
64712;SDS011;51140;45.340;5.980;2024-03-23T06:39:36;9.65;;;5.35;;
64712;SDS011;51140;45.340;5.980;2024-03-23T06:42:02;11.27;;;5.78;;
64712;SDS011;51140;45.340;5.980;2024-03-23T06:44:27;11.90;;;5.70;;
64712;SDS011;51140;45.340;5.980;2024-03-23T06:46:53;8.52;;;4.60;;
64712;SDS011;51140;45.340;5.980;2024-03-23T06:49:18;8.80;;;5.43;;
64712;SDS011;51140;45.340;5.980;2024-03-23T06:51:44;8.43;;;4.35;;
64712;SDS011;51140;45.340;5.980;2024-03-23T06:54:10;10.10;;;4.13;;
64712;SDS011;51140;45.340;5.980;2024-03-23T06:56:35;9.55;;;4.15;;
64712;SDS011;51140;45.340;5.980;2024-03-23T06:59:01;8.75;;;4.05;;
64712;SDS011;51140;45.340;5.980;2024-03-23T07:01:26;11.88;;;6.78;;
64712;SDS011;51140;45.340;5.980;2024-03-23T07:03:52;10.52;;;6.40;;
64712;SDS011;51140;45.340;5.980;2024-03-23T07:06:18;12.00;;;7.80;;
64712;SDS011;51140;45.340;5.980;2024-03-23T07:08:43;11.70;;;5.80;;
64712;SDS011;51140;45.340;5.980;2024-03-23T07:11:08;9.57;;;4.80;;
64712;SDS011;51140;45.340;5.980;2024-03-23T07:13:34;11.75;;;5.78;;
64712;SDS011;51140;45.340;5.980;2024-03-23T07:15:59;7.32;;;3.60;;
64712;SDS011;51140;45.340;5.980;2024-03-23T07:18:25;8.55;;;4.03;;
64712;SDS011;51140;45.340;5.980;2024-03-23T07:20:57;8.23;;;3.47;;
64712;SDS011;51140;45.340;5.980;2024-03-23T07:23:23;7.70;;;4.05;;
64712;SDS011;51140;45.340;5.980;2024-03-23T07:25:56;9.32;;;3.92;;
64712;SDS011;51140;45.340;5.980;2024-03-23T07:28:29;12.30;;;4.25;;
64712;SDS011;51140;45.340;5.980;2024-03-23T07:31:15;9.25;;;3.83;;
64712;SDS011;51140;45.340;5.980;2024-03-23T07:33:47;9.18;;;4.60;;
64712;SDS011;51140;45.340;5.980;2024-03-23T07:36:13;8.43;;;3.83;;
64712;SDS011;51140;45.340;5.980;2024-03-23T07:38:42;8.73;;;3.60;;
64712;SDS011;51140;45.340;5.980;2024-03-23T07:41:12;9.30;;;3.70;;
64712;SDS011;51140;45.340;5.980;2024-03-23T07:43:42;6.88;;;2.90;;
64712;SDS011;51140;45.340;5.980;2024-03-23T07:46:07;6.32;;;2.60;;
64712;SDS011;51140;45.340;5.980;2024-03-23T07:48:33;6.85;;;2.45;;
64712;SDS011;51140;45.340;5.980;2024-03-23T07:51:02;6.95;;;3.80;;
64712;SDS011;51140;45.340;5.980;2024-03-23T07:53:30;6.88;;;2.80;;
64712;SDS011;51140;45.340;5.980;2024-03-23T07:55:57;6.72;;;2.80;;
64712;SDS011;51140;45.340;5.980;2024-03-23T07:58:37;6.05;;;2.80;;
64712;SDS011;51140;45.340;5.980;2024-03-23T08:01:06;6.15;;;2.80;;
64712;SDS011;51140;45.340;5.980;2024-03-23T08:03:36;5.47;;;2.10;;
64712;SDS011;51140;45.340;5.980;2024-03-23T08:08:40;5.00;;;2.15;;
64712;SDS011;51140;45.340;5.980;2024-03-23T08:11:08;8.73;;;3.25;;
64712;SDS011;51140;45.340;5.980;2024-03-23T08:13:34;6.60;;;3.42;;
64712;SDS011;51140;45.340;5.980;2024-03-23T08:16:00;5.72;;;2.60;;
64712;SDS011;51140;45.340;5.980;2024-03-23T08:18:28;8.10;;;3.58;;
64712;SDS011;51140;45.340;5.980;2024-03-23T08:21:01;9.45;;;3.83;;
64712;SDS011;51140;45.340;5.980;2024-03-23T08:23:32;5.57;;;2.72;;
64712;SDS011;51140;45.340;5.980;2024-03-23T08:25:59;9.48;;;5.35;;
64712;SDS011;51140;45.340;5.980;2024-03-23T08:28:26;6.82;;;3.67;;
64712;SDS011;51140;45.340;5.980;2024-03-23T08:30:53;6.70;;;2.92;;
64712;SDS011;51140;45.340;5.980;2024-03-23T08:33:20;7.45;;;3.25;;
64712;SDS011;51140;45.340;5.980;2024-03-23T08:35:56;5.18;;;2.47;;
64712;SDS011;51140;45.340;5.980;2024-03-23T08:38:24;6.20;;;2.97;;
64712;SDS011;51140;45.340;5.980;2024-03-23T08:40:57;6.63;;;3.20;;
64712;SDS011;51140;45.340;5.980;2024-03-23T08:43:30;6.68;;;3.25;;
64712;SDS011;51140;45.340;5.980;2024-03-23T08:46:04;7.65;;;3.50;;
64712;SDS011;51140;45.340;5.980;2024-03-23T08:48:34;6.45;;;3.45;;
64712;SDS011;51140;45.340;5.980;2024-03-23T08:53:28;7.72;;;3.45;;
64712;SDS011;51140;45.340;5.980;2024-03-23T08:55:55;6.55;;;3.03;;
64712;SDS011;51140;45.340;5.980;2024-03-23T08:58:26;6.18;;;3.00;;
64712;SDS011;51140;45.340;5.980;2024-03-23T09:00:53;8.98;;;3.90;;
64712;SDS011;51140;45.340;5.980;2024-03-23T09:03:24;7.57;;;3.80;;
64712;SDS011;51140;45.340;5.980;2024-03-23T09:05:50;9.07;;;3.58;;
64712;SDS011;51140;45.340;5.980;2024-03-23T09:08:16;8.45;;;3.60;;
64712;SDS011;51140;45.340;5.980;2024-03-23T09:10:43;5.38;;;2.40;;
64712;SDS011;51140;45.340;5.980;2024-03-23T09:13:09;5.80;;;2.50;;
64712;SDS011;51140;45.340;5.980;2024-03-23T09:15:36;5.50;;;2.10;;
64712;SDS011;51140;45.340;5.980;2024-03-23T09:18:10;6.20;;;2.67;;
64712;SDS011;51140;45.340;5.980;2024-03-23T09:20:36;4.25;;;1.60;;
64712;SDS011;51140;45.340;5.980;2024-03-23T09:23:01;6.57;;;1.75;;
64712;SDS011;51140;45.340;5.980;2024-03-23T09:25:27;5.55;;;1.50;;
64712;SDS011;51140;45.340;5.980;2024-03-23T09:27:53;3.28;;;1.02;;
64712;SDS011;51140;45.340;5.980;2024-03-23T09:30:18;2.85;;;1.10;;
64712;SDS011;51140;45.340;5.980;2024-03-23T09:32:44;2.75;;;0.90;;
64712;SDS011;51140;45.340;5.980;2024-03-23T09:35:10;9.85;;;3.30;;
64712;SDS011;51140;45.340;5.980;2024-03-23T09:37:37;4.68;;;1.30;;
64712;SDS011;51140;45.340;5.980;2024-03-23T09:40:05;1.73;;;0.75;;
64712;SDS011;51140;45.340;5.980;2024-03-23T09:42:34;4.93;;;1.48;;
64712;SDS011;51140;45.340;5.980;2024-03-23T09:45:00;3.78;;;0.82;;
64712;SDS011;51140;45.340;5.980;2024-03-23T09:47:26;3.10;;;0.70;;
64712;SDS011;51140;45.340;5.980;2024-03-23T09:49:52;3.47;;;1.00;;
64712;SDS011;51140;45.340;5.980;2024-03-23T09:52:19;2.97;;;0.63;;
64712;SDS011;51140;45.340;5.980;2024-03-23T09:54:45;2.40;;;0.70;;
64712;SDS011;51140;45.340;5.980;2024-03-23T09:57:11;5.90;;;2.13;;
64712;SDS011;51140;45.340;5.980;2024-03-23T09:59:37;4.45;;;1.33;;
64712;SDS011;51140;45.340;5.980;2024-03-23T10:02:03;4.05;;;1.50;;
64712;SDS011;51140;45.340;5.980;2024-03-23T10:04:42;5.20;;;1.00;;
64712;SDS011;51140;45.340;5.980;2024-03-23T10:07:13;3.78;;;0.80;;
64712;SDS011;51140;45.340;5.980;2024-03-23T10:09:40;2.65;;;0.80;;
64712;SDS011;51140;45.340;5.980;2024-03-23T10:12:10;2.13;;;0.80;;
64712;SDS011;51140;45.340;5.980;2024-03-23T10:14:38;4.70;;;0.93;;
64712;SDS011;51140;45.340;5.980;2024-03-23T10:17:18;4.53;;;1.45;;
64712;SDS011;51140;45.340;5.980;2024-03-23T10:19:48;2.30;;;1.00;;
64712;SDS011;51140;45.340;5.980;2024-03-23T10:22:19;7.13;;;1.77;;
64712;SDS011;51140;45.340;5.980;2024-03-23T10:24:46;4.43;;;1.52;;
64712;SDS011;51140;45.340;5.980;2024-03-23T10:27:15;8.00;;;1.55;;
64712;SDS011;51140;45.340;5.980;2024-03-23T10:29:43;7.13;;;1.50;;
64712;SDS011;51140;45.340;5.980;2024-03-23T10:32:16;5.43;;;1.50;;
64712;SDS011;51140;45.340;5.980;2024-03-23T10:34:42;4.93;;;1.30;;
64712;SDS011;51140;45.340;5.980;2024-03-23T10:37:08;6.78;;;1.25;;
64712;SDS011;51140;45.340;5.980;2024-03-23T10:39:35;3.05;;;1.13;;
64712;SDS011;51140;45.340;5.980;2024-03-23T10:42:05;4.53;;;1.00;;
64712;SDS011;51140;45.340;5.980;2024-03-23T10:44:35;3.13;;;0.80;;
64712;SDS011;51140;45.340;5.980;2024-03-23T10:47:02;2.97;;;1.00;;
64712;SDS011;51140;45.340;5.980;2024-03-23T10:49:34;5.22;;;1.08;;
64712;SDS011;51140;45.340;5.980;2024-03-23T10:52:02;4.28;;;1.10;;
64712;SDS011;51140;45.340;5.980;2024-03-23T10:54:29;3.33;;;1.20;;
64712;SDS011;51140;45.340;5.980;2024-03-23T10:57:06;5.40;;;1.10;;
64712;SDS011;51140;45.340;5.980;2024-03-23T10:59:36;1.98;;;0.73;;
64712;SDS011;51140;45.340;5.980;2024-03-23T11:02:03;4.32;;;1.00;;
64712;SDS011;51140;45.340;5.980;2024-03-23T11:06:57;4.40;;;1.02;;
64712;SDS011;51140;45.340;5.980;2024-03-23T11:12:46;4.00;;;1.20;;
64712;SDS011;51140;45.340;5.980;2024-03-23T11:14:46;5.00;;;0.90;;
64712;SDS011;51140;45.340;5.980;2024-03-23T11:17:17;5.97;;;1.10;;
64712;SDS011;51140;45.340;5.980;2024-03-23T11:19:43;6.95;;;1.20;;
64712;SDS011;51140;45.340;5.980;2024-03-23T11:22:08;3.83;;;1.00;;
64712;SDS011;51140;45.340;5.980;2024-03-23T11:24:34;5.10;;;1.20;;
64712;SDS011;51140;45.340;5.980;2024-03-23T11:27:00;5.85;;;1.10;;
64712;SDS011;51140;45.340;5.980;2024-03-23T11:29:27;4.82;;;1.25;;
64712;SDS011;51140;45.340;5.980;2024-03-23T11:31:53;8.10;;;1.75;;
64712;SDS011;51140;45.340;5.980;2024-03-23T11:34:19;6.05;;;1.20;;
64712;SDS011;51140;45.340;5.980;2024-03-23T11:36:45;5.00;;;1.48;;
64712;SDS011;51140;45.340;5.980;2024-03-23T11:39:20;4.72;;;1.10;;
64712;SDS011;51140;45.340;5.980;2024-03-23T11:41:46;5.07;;;1.10;;
64712;SDS011;51140;45.340;5.980;2024-03-23T11:44:19;4.63;;;1.15;;
64712;SDS011;51140;45.340;5.980;2024-03-23T11:46:47;6.28;;;1.50;;
64712;SDS011;51140;45.340;5.980;2024-03-23T11:49:26;5.10;;;1.25;;
64712;SDS011;51140;45.340;5.980;2024-03-23T11:51:53;7.22;;;1.15;;
64712;SDS011;51140;45.340;5.980;2024-03-23T11:54:23;8.00;;;1.40;;
64712;SDS011;51140;45.340;5.980;2024-03-23T11:56:59;5.30;;;1.00;;
64712;SDS011;51140;45.340;5.980;2024-03-23T11:59:40;5.13;;;1.35;;
64712;SDS011;51140;45.340;5.980;2024-03-23T12:02:10;5.28;;;1.27;;
64712;SDS011;51140;45.340;5.980;2024-03-23T12:04:37;8.30;;;1.73;;
64712;SDS011;51140;45.340;5.980;2024-03-23T12:07:13;6.20;;;1.50;;
64712;SDS011;51140;45.340;5.980;2024-03-23T12:09:43;7.93;;;1.38;;
64712;SDS011;51140;45.340;5.980;2024-03-23T12:12:13;6.25;;;1.65;;
64712;SDS011;51140;45.340;5.980;2024-03-23T12:14:41;7.80;;;2.08;;
64712;SDS011;51140;45.340;5.980;2024-03-23T12:17:08;7.38;;;1.88;;
64712;SDS011;51140;45.340;5.980;2024-03-23T12:19:46;8.57;;;1.67;;
64712;SDS011;51140;45.340;5.980;2024-03-23T12:22:11;6.82;;;1.70;;
64712;SDS011;51140;45.340;5.980;2024-03-23T12:24:37;8.70;;;1.88;;
64712;SDS011;51140;45.340;5.980;2024-03-23T12:27:04;9.77;;;1.92;;
64712;SDS011;51140;45.340;5.980;2024-03-23T12:29:30;6.28;;;1.65;;
64712;SDS011;51140;45.340;5.980;2024-03-23T12:31:59;9.38;;;1.60;;
64712;SDS011;51140;45.340;5.980;2024-03-23T12:34:25;5.55;;;1.48;;
64712;SDS011;51140;45.340;5.980;2024-03-23T12:36:50;8.60;;;1.60;;
64712;SDS011;51140;45.340;5.980;2024-03-23T12:39:15;6.45;;;1.67;;
64712;SDS011;51140;45.340;5.980;2024-03-23T12:41:41;10.18;;;1.90;;
64712;SDS011;51140;45.340;5.980;2024-03-23T12:44:06;9.30;;;1.88;;
64712;SDS011;51140;45.340;5.980;2024-03-23T12:46:33;11.00;;;1.90;;
64712;SDS011;51140;45.340;5.980;2024-03-23T12:48:59;10.35;;;1.90;;
64712;SDS011;51140;45.340;5.980;2024-03-23T12:51:24;7.82;;;2.28;;
64712;SDS011;51140;45.340;5.980;2024-03-23T12:53:50;8.77;;;1.80;;
64712;SDS011;51140;45.340;5.980;2024-03-23T12:56:15;8.20;;;1.63;;
64712;SDS011;51140;45.340;5.980;2024-03-23T12:58:41;10.13;;;2.13;;
64712;SDS011;51140;45.340;5.980;2024-03-23T13:01:06;5.90;;;1.67;;
64712;SDS011;51140;45.340;5.980;2024-03-23T13:03:31;16.60;;;2.17;;
64712;SDS011;51140;45.340;5.980;2024-03-23T13:05:57;9.80;;;1.70;;
64712;SDS011;51140;45.340;5.980;2024-03-23T13:08:22;9.18;;;1.83;;
64712;SDS011;51140;45.340;5.980;2024-03-23T13:10:51;8.35;;;1.60;;
64712;SDS011;51140;45.340;5.980;2024-03-23T13:13:17;8.05;;;1.70;;
64712;SDS011;51140;45.340;5.980;2024-03-23T13:15:42;7.32;;;1.83;;
64712;SDS011;51140;45.340;5.980;2024-03-23T13:18:07;10.45;;;1.88;;
64712;SDS011;51140;45.340;5.980;2024-03-23T13:20:35;9.02;;;2.00;;
64712;SDS011;51140;45.340;5.980;2024-03-23T13:23:00;10.32;;;2.55;;
64712;SDS011;51140;45.340;5.980;2024-03-23T13:25:26;6.82;;;1.48;;
64712;SDS011;51140;45.340;5.980;2024-03-23T13:27:51;7.57;;;1.75;;
64712;SDS011;51140;45.340;5.980;2024-03-23T13:30:17;5.85;;;1.92;;
64712;SDS011;51140;45.340;5.980;2024-03-23T13:32:42;5.85;;;1.42;;
64712;SDS011;51140;45.340;5.980;2024-03-23T13:35:07;5.60;;;1.70;;
64712;SDS011;51140;45.340;5.980;2024-03-23T13:37:33;7.10;;;1.75;;
64712;SDS011;51140;45.340;5.980;2024-03-23T13:39:59;9.13;;;1.60;;
64712;SDS011;51140;45.340;5.980;2024-03-23T13:42:24;6.88;;;1.50;;
64712;SDS011;51140;45.340;5.980;2024-03-23T13:44:51;4.97;;;1.63;;
64712;SDS011;51140;45.340;5.980;2024-03-23T13:47:16;7.10;;;1.77;;
64712;SDS011;51140;45.340;5.980;2024-03-23T13:49:41;9.73;;;1.80;;
64712;SDS011;51140;45.340;5.980;2024-03-23T13:52:07;6.88;;;1.65;;
64712;SDS011;51140;45.340;5.980;2024-03-23T13:54:32;5.63;;;1.25;;
64712;SDS011;51140;45.340;5.980;2024-03-23T13:56:58;8.85;;;2.10;;
64712;SDS011;51140;45.340;5.980;2024-03-23T13:59:23;10.55;;;1.73;;
64712;SDS011;51140;45.340;5.980;2024-03-23T14:01:49;6.35;;;1.30;;
64712;SDS011;51140;45.340;5.980;2024-03-23T14:04:15;7.53;;;1.80;;
64712;SDS011;51140;45.340;5.980;2024-03-23T14:06:48;6.70;;;1.55;;
64712;SDS011;51140;45.340;5.980;2024-03-23T14:09:14;5.15;;;1.77;;
64712;SDS011;51140;45.340;5.980;2024-03-23T14:11:40;6.70;;;1.80;;
64712;SDS011;51140;45.340;5.980;2024-03-23T14:14:08;5.30;;;1.30;;
64712;SDS011;51140;45.340;5.980;2024-03-23T14:16:33;7.40;;;1.58;;
64712;SDS011;51140;45.340;5.980;2024-03-23T14:18:59;9.82;;;2.28;;
64712;SDS011;51140;45.340;5.980;2024-03-23T14:21:24;7.68;;;1.40;;
64712;SDS011;51140;45.340;5.980;2024-03-23T14:23:50;6.47;;;1.38;;
64712;SDS011;51140;45.340;5.980;2024-03-23T14:26:16;7.40;;;1.73;;
64712;SDS011;51140;45.340;5.980;2024-03-23T14:28:41;8.82;;;1.70;;
64712;SDS011;51140;45.340;5.980;2024-03-23T14:31:06;5.85;;;1.35;;
64712;SDS011;51140;45.340;5.980;2024-03-23T14:33:38;7.47;;;1.58;;
64712;SDS011;51140;45.340;5.980;2024-03-23T14:36:11;9.07;;;1.45;;
64712;SDS011;51140;45.340;5.980;2024-03-23T14:38:36;8.40;;;1.50;;
64712;SDS011;51140;45.340;5.980;2024-03-23T14:41:01;7.05;;;1.35;;
64712;SDS011;51140;45.340;5.980;2024-03-23T14:43:28;6.55;;;1.40;;
64712;SDS011;51140;45.340;5.980;2024-03-23T14:48:35;5.07;;;1.20;;
64712;SDS011;51140;45.340;5.980;2024-03-23T14:51:01;8.35;;;1.30;;
64712;SDS011;51140;45.340;5.980;2024-03-23T14:53:29;8.68;;;1.70;;
64712;SDS011;51140;45.340;5.980;2024-03-23T14:55:55;10.55;;;1.42;;
64712;SDS011;51140;45.340;5.980;2024-03-23T14:58:21;6.97;;;1.20;;
64712;SDS011;51140;45.340;5.980;2024-03-23T15:00:48;6.90;;;1.60;;
64712;SDS011;51140;45.340;5.980;2024-03-23T15:03:17;5.80;;;1.20;;
64712;SDS011;51140;45.340;5.980;2024-03-23T15:05:51;5.18;;;1.13;;
64712;SDS011;51140;45.340;5.980;2024-03-23T15:08:17;7.37;;;2.40;;
64712;SDS011;51140;45.340;5.980;2024-03-23T15:10:42;7.95;;;1.42;;
64712;SDS011;51140;45.340;5.980;2024-03-23T15:13:07;5.85;;;1.13;;
64712;SDS011;51140;45.340;5.980;2024-03-23T15:15:37;6.10;;;1.30;;
64712;SDS011;51140;45.340;5.980;2024-03-23T15:18:04;10.10;;;1.20;;
64712;SDS011;51140;45.340;5.980;2024-03-23T15:20:29;13.35;;;3.97;;
64712;SDS011;51140;45.340;5.980;2024-03-23T15:22:55;9.20;;;2.60;;
64712;SDS011;51140;45.340;5.980;2024-03-23T15:25:20;5.47;;;1.23;;
64712;SDS011;51140;45.340;5.980;2024-03-23T15:27:48;6.38;;;1.45;;
64712;SDS011;51140;45.340;5.980;2024-03-23T15:30:14;8.52;;;1.73;;
64712;SDS011;51140;45.340;5.980;2024-03-23T15:32:39;6.53;;;1.40;;
64712;SDS011;51140;45.340;5.980;2024-03-23T15:35:05;7.78;;;1.20;;
64712;SDS011;51140;45.340;5.980;2024-03-23T15:37:32;4.95;;;1.25;;
64712;SDS011;51140;45.340;5.980;2024-03-23T15:39:59;5.80;;;1.20;;
64712;SDS011;51140;45.340;5.980;2024-03-23T15:42:24;7.95;;;1.30;;
64712;SDS011;51140;45.340;5.980;2024-03-23T15:44:50;5.35;;;1.38;;
64712;SDS011;51140;45.340;5.980;2024-03-23T15:47:15;4.00;;;1.05;;
64712;SDS011;51140;45.340;5.980;2024-03-23T15:49:41;5.20;;;1.30;;